createdAt,value
2023-05-04T00:01:11.180Z,8.57
2023-05-04T00:07:15.489Z,10.55
2023-05-04T00:13:18.881Z,10.35
2023-05-04T00:19:23.866Z,12.63
2023-05-04T00:25:27.268Z,9.30
2023-05-04T00:31:30.703Z,10.95
2023-05-04T00:37:35.516Z,8.93
2023-05-04T00:43:39.052Z,10.30
2023-05-04T00:49:42.474Z,9.77
2023-05-04T00:55:47.532Z,10.55
2023-05-04T01:01:51.188Z,9.07
2023-05-04T01:08:00.575Z,10.07
2023-05-04T01:14:06.193Z,10.32
2023-05-04T01:20:10.588Z,11.20
2023-05-04T01:26:18.860Z,9.77
2023-05-04T01:32:23.075Z,9.13
2023-05-04T01:38:26.752Z,9.40
2023-05-04T01:44:31.497Z,10.68
2023-05-04T01:50:35.274Z,14.43
2023-05-04T01:56:38.701Z,11.70
2023-05-04T02:02:43.585Z,11.20
2023-05-04T02:08:47.252Z,10.68
2023-05-04T02:14:50.696Z,12.32
2023-05-04T02:20:55.958Z,10.82
2023-05-04T02:26:59.680Z,9.93
2023-05-04T02:33:03.086Z,13.02
2023-05-04T02:39:07.950Z,10.13
2023-05-04T02:45:11.992Z,10.10
2023-05-04T02:51:15.435Z,11.90
2023-05-04T02:57:20.486Z,11.82
2023-05-04T03:03:24.306Z,11.00
2023-05-04T03:09:27.745Z,9.73
2023-05-04T03:15:32.630Z,11.23
2023-05-04T03:21:36.124Z,11.38
2023-05-04T03:27:39.509Z,12.98
2023-05-04T03:33:44.538Z,12.70
2023-05-04T03:39:48.042Z,11.45
2023-05-04T03:45:51.527Z,10.80
2023-05-04T03:51:56.355Z,11.65
2023-05-04T03:57:59.772Z,11.73
2023-05-04T04:04:03.470Z,11.82
2023-05-04T04:10:09.644Z,10.82
2023-05-04T04:16:13.130Z,12.82
2023-05-04T04:22:16.701Z,12.07
2023-05-04T04:28:21.475Z,10.52
2023-05-04T04:34:24.925Z,13.88
2023-05-04T04:40:28.401Z,12.93
2023-05-04T04:46:34.096Z,14.45
2023-05-04T04:52:37.889Z,12.55
2023-05-04T04:58:41.830Z,14.73
2023-05-04T05:04:46.626Z,15.48
2023-05-04T05:10:50.172Z,14.77
2023-05-04T05:16:53.684Z,12.98
2023-05-04T05:22:58.498Z,13.27
2023-05-04T05:29:01.908Z,14.02
2023-05-04T05:35:05.771Z,11.82
2023-05-04T05:41:11.690Z,12.95
2023-05-04T05:47:15.170Z,13.13
2023-05-04T05:53:18.617Z,15.57
2023-05-04T05:59:23.497Z,11.70
2023-05-04T06:05:26.908Z,12.15
2023-05-04T06:11:30.328Z,14.00
2023-05-04T06:17:35.220Z,13.32
2023-05-04T06:23:38.697Z,13.40
2023-05-04T06:29:42.441Z,13.30
2023-05-04T06:35:47.561Z,11.95
2023-05-04T06:41:51.042Z,16.33
2023-05-04T06:47:54.540Z,16.63
2023-05-04T06:54:00.313Z,11.75
2023-05-04T07:00:04.554Z,10.18
2023-05-04T07:06:08.899Z,11.40
2023-05-04T07:12:13.675Z,11.25
2023-05-04T07:18:17.251Z,11.13
2023-05-04T07:24:20.678Z,10.45
2023-05-04T07:30:26.319Z,10.90
2023-05-04T07:36:30.157Z,12.45
2023-05-04T07:42:33.568Z,9.70
2023-05-04T07:48:38.368Z,10.43
2023-05-04T07:54:41.815Z,11.35
2023-05-04T08:00:45.560Z,10.70
2023-05-04T08:06:50.911Z,9.55
2023-05-04T08:12:54.430Z,12.35
2023-05-04T08:18:58.359Z,10.02
2023-05-04T08:25:03.684Z,9.00
2023-05-04T08:31:07.807Z,10.75
2023-05-04T08:37:11.293Z,8.35
2023-05-04T08:43:16.360Z,8.85
2023-05-04T08:49:20.357Z,10.38
2023-05-04T08:55:24.020Z,9.45
2023-05-04T09:01:28.962Z,9.27
2023-05-04T09:07:32.733Z,10.07
2023-05-04T09:13:36.665Z,9.68
2023-05-04T09:19:44.035Z,11.30
2023-05-04T09:25:51.205Z,11.70
2023-05-04T09:31:55.554Z,8.30
2023-05-04T09:38:00.615Z,12.82
2023-05-04T09:44:04.821Z,9.07
2023-05-04T09:50:17.585Z,11.75
2023-05-04T09:56:28.621Z,10.63
2023-05-04T10:02:33.953Z,10.25
2023-05-04T10:08:38.213Z,10.35
2023-05-04T10:14:46.938Z,11.05
2023-05-04T10:21:00.190Z,10.10
2023-05-04T10:27:06.670Z,9.30
2023-05-04T10:33:11.555Z,9.52
2023-05-04T10:39:21.538Z,8.65
2023-05-04T10:45:35.817Z,13.02
2023-05-04T10:51:49.153Z,11.10
2023-05-04T10:57:54.621Z,10.52
2023-05-04T11:03:58.082Z,8.95
2023-05-04T11:10:03.228Z,9.20
2023-05-04T11:16:06.800Z,10.35
2023-05-04T11:22:13.800Z,8.82
2023-05-04T11:28:18.619Z,10.27
2023-05-04T11:34:22.465Z,9.18
2023-05-04T11:40:27.037Z,9.25
2023-05-04T11:46:32.044Z,9.27
2023-05-04T11:52:36.542Z,9.77
2023-05-04T11:58:39.953Z,7.68
2023-05-04T12:04:44.753Z,8.70
2023-05-04T12:10:48.438Z,8.38
2023-05-04T12:17:01.845Z,13.77
2023-05-04T12:23:09.012Z,11.40
2023-05-04T12:29:12.440Z,8.20
2023-05-04T12:35:15.886Z,9.45
2023-05-04T12:41:20.681Z,10.90
2023-05-04T12:47:24.789Z,7.28
2023-05-04T12:53:30.173Z,9.43
2023-05-04T12:59:35.178Z,6.30
2023-05-04T13:05:38.831Z,6.32
2023-05-04T13:11:42.299Z,5.32
2023-05-04T13:17:47.191Z,6.20
2023-05-04T13:23:50.660Z,4.60
2023-05-04T13:29:54.095Z,5.25
2023-05-04T13:35:59.257Z,5.05
2023-05-04T13:42:03.995Z,4.03
2023-05-04T13:48:07.749Z,5.72
2023-05-04T13:54:13.182Z,5.70
2023-05-04T14:00:17.952Z,4.20
2023-05-04T14:06:21.964Z,4.70
2023-05-04T14:12:27.512Z,5.90
2023-05-04T14:18:32.448Z,4.45
2023-05-04T14:24:37.056Z,4.82
2023-05-04T14:30:41.882Z,4.40
2023-05-04T14:36:48.434Z,4.40
2023-05-04T14:42:52.002Z,3.20
2023-05-04T14:48:56.835Z,3.92
2023-05-04T14:55:04.208Z,2.85
2023-05-04T15:01:07.750Z,3.42
2023-05-04T15:07:14.393Z,3.53
2023-05-04T15:13:18.184Z,3.65
2023-05-04T15:19:22.092Z,3.55
2023-05-04T15:25:27.512Z,3.03
2023-05-04T15:31:31.336Z,2.80
2023-05-04T15:37:35.179Z,3.92
2023-05-04T15:43:39.985Z,3.53
2023-05-04T15:49:43.397Z,3.25
2023-05-04T15:55:47.007Z,3.50
2023-05-04T16:01:51.808Z,3.08
2023-05-04T16:07:55.649Z,3.90
2023-05-04T16:13:59.075Z,5.75
2023-05-04T16:20:04.258Z,4.97
2023-05-04T16:26:07.793Z,5.30
2023-05-04T16:32:11.456Z,3.35
2023-05-04T16:38:16.477Z,6.05
2023-05-04T16:44:19.863Z,4.28
2023-05-04T16:50:23.444Z,5.80
2023-05-04T16:56:28.423Z,6.90
2023-05-04T17:02:32.052Z,5.70
2023-05-04T17:08:36.018Z,7.47
2023-05-04T17:14:40.806Z,5.45
2023-05-04T17:20:44.251Z,7.03
2023-05-04T17:26:47.675Z,4.88
2023-05-04T17:32:54.403Z,7.25
2023-05-04T17:38:58.272Z,10.05
2023-05-04T17:45:02.018Z,5.88
2023-05-04T17:51:09.328Z,4.72
2023-05-04T17:57:16.957Z,5.53
2023-05-04T18:03:20.853Z,5.43
2023-05-04T18:09:25.737Z,6.20
2023-05-04T18:15:29.430Z,5.15
2023-05-04T18:21:32.830Z,5.20
2023-05-04T18:27:37.694Z,5.65
2023-05-04T18:33:42.067Z,5.68
2023-05-04T18:39:45.728Z,6.38
2023-05-04T18:45:50.644Z,5.53
2023-05-04T18:51:54.157Z,6.72
2023-05-04T18:57:57.801Z,5.70
2023-05-04T19:04:04.176Z,6.32
2023-05-04T19:10:09.074Z,6.45
2023-05-04T19:16:13.473Z,5.38
2023-05-04T19:22:18.592Z,5.13
2023-05-04T19:28:22.001Z,6.32
2023-05-04T19:34:25.496Z,6.07
2023-05-04T19:40:31.113Z,10.90
2023-05-04T19:46:35.546Z,5.95
2023-05-04T19:52:39.469Z,7.55
2023-05-04T19:58:44.409Z,6.15
2023-05-04T20:04:47.834Z,8.63
2023-05-04T20:10:56.299Z,9.80
2023-05-04T20:17:01.207Z,13.73
2023-05-04T20:23:04.824Z,13.93
2023-05-04T20:29:08.694Z,14.15
2023-05-04T20:35:13.493Z,13.75
2023-05-04T20:41:17.088Z,12.98
2023-05-04T20:47:20.738Z,14.25
2023-05-04T20:53:27.617Z,6.78
2023-05-04T20:59:31.105Z,7.25
2023-05-04T21:05:34.513Z,8.55
2023-05-04T21:11:39.313Z,10.88
2023-05-04T21:17:42.930Z,6.95
2023-05-04T21:23:46.392Z,5.25
2023-05-04T21:29:51.832Z,4.47
2023-05-04T21:35:55.313Z,4.55
2023-05-04T21:41:58.847Z,4.80
2023-05-04T21:48:03.894Z,3.85
2023-05-04T21:54:08.218Z,4.20
2023-05-04T22:00:12.849Z,4.05
2023-05-04T22:06:17.638Z,4.80
2023-05-04T22:12:21.087Z,5.18
2023-05-04T22:18:24.878Z,5.43
2023-05-04T22:24:29.707Z,6.00
2023-05-04T22:30:33.455Z,5.25
2023-05-04T22:36:36.884Z,8.05
2023-05-04T22:42:44.755Z,4.78
2023-05-04T22:48:48.436Z,5.28
2023-05-04T22:54:52.719Z,7.45
2023-05-04T23:00:57.474Z,4.07
2023-05-04T23:07:01.428Z,3.95
2023-05-04T23:13:04.912Z,5.10
2023-05-04T23:19:09.818Z,5.53
2023-05-04T23:25:13.386Z,3.92
2023-05-04T23:31:17.158Z,6.38
2023-05-04T23:37:22.814Z,4.70
2023-05-04T23:43:26.495Z,4.55
2023-05-04T23:49:29.929Z,5.15
2023-05-04T23:55:34.682Z,4.78
